createdAt,value
2022-10-28T00:01:24.998Z,101296.22
2022-10-28T00:03:54.997Z,101295.94
2022-10-28T00:06:30.830Z,101295.78
2022-10-28T00:08:58.818Z,101292.62
2022-10-28T00:11:28.863Z,101291.94
2022-10-28T00:13:57.731Z,101286.84
2022-10-28T00:16:27.774Z,101297.84
2022-10-28T00:18:55.760Z,101285.63
2022-10-28T00:21:25.505Z,101291.88
2022-10-28T00:23:53.732Z,101292.59
2022-10-28T00:26:25.859Z,101288.31
2022-10-28T00:28:59.055Z,101290.44
2022-10-28T00:31:28.310Z,101287.28
2022-10-28T00:33:56.681Z,101297.56
2022-10-28T00:36:26.620Z,101295.56
2022-10-28T00:38:55.294Z,101296.41
2022-10-28T00:41:24.532Z,101296.53
2022-10-28T00:43:54.333Z,101287.41
2022-10-28T00:46:35.657Z,101300.44
2022-10-28T00:49:06.969Z,101300.56
2022-10-28T00:51:35.092Z,101294.75
2022-10-28T00:54:04.309Z,101289.44
2022-10-28T00:56:40.758Z,101286.12
2022-10-28T00:59:13.437Z,101295.53
2022-10-28T01:01:40.825Z,101288.84
2022-10-28T01:04:08.534Z,101287.28
2022-10-28T01:06:35.978Z,101278.84
2022-10-28T01:09:03.426Z,101284.22
2022-10-28T01:11:46.136Z,101275.00
2022-10-28T01:14:21.980Z,101281.91
2022-10-28T01:16:55.741Z,101282.22
2022-10-28T01:19:42.892Z,101281.37
2022-10-28T01:22:19.576Z,101279.81
2022-10-28T01:24:49.798Z,101279.31
2022-10-28T01:27:45.340Z,101269.47
2022-10-28T01:30:25.686Z,101271.97
2022-10-28T01:32:56.433Z,101263.22
2022-10-28T01:35:42.091Z,101265.03
2022-10-28T01:38:26.580Z,101262.94
2022-10-28T01:40:53.780Z,101271.25
2022-10-28T01:43:30.326Z,101267.44
2022-10-28T01:46:05.770Z,101257.34
2022-10-28T01:48:39.459Z,101261.03
2022-10-28T01:51:30.828Z,101270.97
2022-10-28T01:54:00.175Z,101264.63
2022-10-28T01:56:31.354Z,101264.88
2022-10-28T01:59:00.970Z,101272.22
2022-10-28T02:01:30.144Z,101274.75
2022-10-28T02:03:57.886Z,101265.72
2022-10-28T02:06:27.760Z,101268.69
2022-10-28T02:09:01.122Z,101262.88
2022-10-28T02:11:38.040Z,101270.16
2022-10-28T02:14:05.227Z,101266.50
2022-10-28T02:16:47.988Z,101264.50
2022-10-28T02:19:26.192Z,101262.19
2022-10-28T02:22:19.569Z,101263.31
2022-10-28T02:25:24.370Z,101270.41
2022-10-28T02:28:08.072Z,101266.25
2022-10-28T02:30:44.260Z,101263.69
2022-10-28T02:33:16.803Z,101264.09
2022-10-28T02:35:57.743Z,101268.97
2022-10-28T02:38:28.690Z,101266.03
2022-10-28T02:40:59.977Z,101266.97
2022-10-28T02:43:30.404Z,101269.62
2022-10-28T02:45:59.826Z,101265.44
2022-10-28T02:48:49.069Z,101260.41
2022-10-28T02:51:36.054Z,101263.50
2022-10-28T02:54:13.259Z,101261.47
2022-10-28T02:56:46.793Z,101246.38
2022-10-28T02:59:14.192Z,101253.41
2022-10-28T03:01:41.881Z,101255.38
2022-10-28T03:04:09.380Z,101251.47
2022-10-28T03:06:36.760Z,101250.28
2022-10-28T03:09:04.444Z,101247.66
2022-10-28T03:11:31.785Z,101253.41
2022-10-28T03:13:59.122Z,101251.31
2022-10-28T03:16:26.842Z,101254.09
2022-10-28T03:18:54.231Z,101254.59
2022-10-28T03:21:21.580Z,101257.31
2022-10-28T03:23:49.211Z,101262.59
2022-10-28T03:26:16.548Z,101257.47
2022-10-28T03:28:43.877Z,101265.81
2022-10-28T03:31:11.480Z,101259.22
2022-10-28T03:33:38.983Z,101267.59
2022-10-28T03:36:06.706Z,101260.50
2022-10-28T03:38:34.308Z,101268.03
2022-10-28T03:41:01.649Z,101256.56
2022-10-28T03:43:28.989Z,101256.12
2022-10-28T03:45:56.568Z,101256.12
2022-10-28T03:48:23.948Z,101257.88
2022-10-28T03:50:54.821Z,101259.81
2022-10-28T03:53:26.278Z,101257.69
2022-10-28T03:55:56.191Z,101250.87
2022-10-28T03:58:24.067Z,101249.50
2022-10-28T04:00:52.591Z,101257.97
2022-10-28T04:03:21.594Z,101254.47
2022-10-28T04:05:49.004Z,101249.25
2022-10-28T04:08:17.078Z,101243.44
2022-10-28T04:10:47.499Z,101254.75
2022-10-28T04:13:15.618Z,101243.31
2022-10-28T04:15:42.980Z,101245.81
2022-10-28T04:18:10.718Z,101247.59
2022-10-28T04:20:38.210Z,101240.72
2022-10-28T04:23:05.857Z,101237.16
2022-10-28T04:25:33.496Z,101244.47
2022-10-28T04:28:00.843Z,101241.81
2022-10-28T04:30:28.191Z,101234.72
2022-10-28T04:32:55.823Z,101238.72
2022-10-28T04:35:23.655Z,101230.75
2022-10-28T04:37:51.198Z,101231.34
2022-10-28T04:40:19.207Z,101225.38
2022-10-28T04:42:46.556Z,101221.50
2022-10-28T04:45:15.701Z,101221.34
2022-10-28T04:47:43.303Z,101224.63
2022-10-28T04:50:10.651Z,101220.81
2022-10-28T04:52:37.981Z,101220.13
2022-10-28T04:55:06.069Z,101213.69
2022-10-28T04:57:33.391Z,101215.59
2022-10-28T05:00:00.717Z,101208.47
2022-10-28T05:02:28.366Z,101216.13
2022-10-28T05:05:00.247Z,101219.69
2022-10-28T05:07:27.872Z,101218.34
2022-10-28T05:09:55.328Z,101217.44
2022-10-28T05:12:22.693Z,101222.06
2022-10-28T05:14:53.048Z,101221.22
2022-10-28T05:17:20.632Z,101214.91
2022-10-28T05:19:48.031Z,101221.03
2022-10-28T05:22:15.723Z,101228.06
2022-10-28T05:24:43.139Z,101225.81
2022-10-28T05:27:10.507Z,101222.66
2022-10-28T05:29:38.196Z,101219.41
2022-10-28T05:34:38.256Z,101226.94
2022-10-28T05:37:05.590Z,101231.34
2022-10-28T05:39:32.924Z,101231.25
2022-10-28T05:42:00.574Z,101235.97
2022-10-28T05:44:28.222Z,101239.38
2022-10-28T05:46:56.552Z,101236.03
2022-10-28T05:49:24.165Z,101245.34
2022-10-28T05:51:51.516Z,101247.00
2022-10-28T05:54:19.030Z,101241.84
2022-10-28T05:56:46.674Z,101242.63
2022-10-28T05:59:14.012Z,101246.41
2022-10-28T06:01:41.491Z,101250.72
2022-10-28T06:04:09.233Z,101245.94
2022-10-28T06:06:36.607Z,101255.84
2022-10-28T06:09:04.146Z,101253.84
2022-10-28T06:11:30.264Z,101260.69
2022-10-28T06:13:57.666Z,101262.66
2022-10-28T06:16:25.010Z,101265.66
2022-10-28T06:18:52.652Z,101262.09
2022-10-28T06:21:20.024Z,101263.00
2022-10-28T06:23:47.527Z,101258.19
2022-10-28T06:26:15.205Z,101265.13
2022-10-28T06:28:45.764Z,101264.97
2022-10-28T06:31:13.454Z,101266.31
2022-10-28T06:33:41.139Z,101265.03
2022-10-28T06:36:08.673Z,101261.03
2022-10-28T06:38:36.014Z,101261.09
2022-10-28T06:41:03.825Z,101264.63
2022-10-28T06:43:31.318Z,101262.56
2022-10-28T06:46:03.719Z,101269.09
2022-10-28T06:48:33.267Z,101264.25
2022-10-28T06:51:00.656Z,101267.94
2022-10-28T06:53:27.993Z,101271.47
2022-10-28T06:55:57.049Z,101268.16
2022-10-28T06:58:25.220Z,101282.13
2022-10-28T07:00:53.268Z,101282.50
2022-10-28T07:03:22.404Z,101285.41
2022-10-28T07:05:51.553Z,101290.34
2022-10-28T07:08:18.947Z,101291.59
2022-10-28T07:10:57.086Z,101288.00
2022-10-28T07:13:24.981Z,101286.41
2022-10-28T07:15:57.319Z,101288.41
2022-10-28T07:18:26.226Z,101285.19
2022-10-28T07:20:54.261Z,101282.94
2022-10-28T07:23:21.634Z,101285.47
2022-10-28T07:25:56.085Z,101295.13
2022-10-28T07:28:24.935Z,101284.03
2022-10-28T07:30:52.672Z,101286.56
2022-10-28T07:33:20.144Z,101284.31
2022-10-28T07:35:48.106Z,101281.47
2022-10-28T07:38:15.509Z,101282.00
2022-10-28T07:40:42.942Z,101288.03
2022-10-28T07:43:10.558Z,101292.19
2022-10-28T07:45:38.064Z,101296.06
2022-10-28T07:48:05.736Z,101303.50
2022-10-28T07:50:33.679Z,101303.69
2022-10-28T07:53:01.296Z,101304.81
2022-10-28T07:55:28.952Z,101303.03
2022-10-28T07:57:56.771Z,101294.22
2022-10-28T08:00:24.414Z,101299.66
2022-10-28T08:02:52.025Z,101298.72
2022-10-28T08:05:19.432Z,101293.75
2022-10-28T08:07:47.930Z,101297.87
2022-10-28T08:10:15.614Z,101292.78
2022-10-28T08:12:43.051Z,101294.25
2022-10-28T08:15:10.726Z,101293.41
2022-10-28T08:17:38.419Z,101290.72
2022-10-28T08:20:06.222Z,101277.03
2022-10-28T08:22:33.592Z,101264.66
2022-10-28T08:25:01.223Z,101276.34
2022-10-28T08:27:28.590Z,101274.59
2022-10-28T08:29:55.979Z,101267.28
2022-10-28T08:32:23.636Z,101269.22
2022-10-28T08:34:50.988Z,101275.66
2022-10-28T08:37:18.583Z,101281.63
2022-10-28T08:39:46.352Z,101288.66
2022-10-28T08:42:38.148Z,101290.94
2022-10-28T08:45:43.438Z,101289.38
2022-10-28T08:48:13.697Z,101291.84
2022-10-28T08:50:48.591Z,101293.63
2022-10-28T08:53:35.561Z,101301.03
2022-10-28T08:56:25.521Z,101303.28
2022-10-28T08:58:54.818Z,101300.63
2022-10-28T09:01:41.577Z,101302.19
2022-10-28T09:04:36.299Z,101304.44
2022-10-28T09:07:04.062Z,101308.28
2022-10-28T09:09:31.929Z,101313.38
2022-10-28T09:12:16.180Z,101310.66
2022-10-28T09:15:28.397Z,101310.34
2022-10-28T09:17:59.757Z,101310.84
2022-10-28T09:20:52.171Z,101315.28
2022-10-28T09:23:32.466Z,101301.16
2022-10-28T09:26:17.840Z,101308.53
2022-10-28T09:29:10.146Z,101303.69
2022-10-28T09:32:05.331Z,101296.53
2022-10-28T09:34:47.901Z,101303.59
2022-10-28T09:37:29.566Z,101310.31
2022-10-28T09:40:03.478Z,101309.31
2022-10-28T09:42:34.880Z,101308.59
2022-10-28T09:45:06.823Z,101307.06
2022-10-28T09:47:42.298Z,101290.06
2022-10-28T09:50:19.556Z,101288.31
2022-10-28T09:53:17.978Z,101300.63
2022-10-28T09:55:45.414Z,101304.00
2022-10-28T09:58:13.882Z,101303.78
2022-10-28T10:00:41.286Z,101304.28
2022-10-28T10:03:08.910Z,101301.84
2022-10-28T10:05:40.944Z,101303.19
2022-10-28T10:08:14.512Z,101300.31
2022-10-28T10:10:48.136Z,101304.06
2022-10-28T10:13:17.920Z,101299.16
2022-10-28T10:15:55.142Z,101303.59
2022-10-28T10:18:26.152Z,101305.56
2022-10-28T10:21:01.441Z,101310.91
2022-10-28T10:23:37.059Z,101308.91
2022-10-28T10:26:09.717Z,101303.38
2022-10-28T10:28:49.662Z,101308.16
2022-10-28T10:31:20.787Z,101310.56
2022-10-28T10:33:53.632Z,101313.00
2022-10-28T10:36:23.799Z,101307.50
2022-10-28T10:38:56.623Z,101300.22
2022-10-28T10:41:41.284Z,101289.16
2022-10-28T10:44:20.863Z,101303.75
2022-10-28T10:47:05.088Z,101297.31
2022-10-28T10:49:35.312Z,101291.31
2022-10-28T10:52:07.546Z,101295.66
2022-10-28T10:54:36.460Z,101283.88
2022-10-28T10:57:16.067Z,101290.34
2022-10-28T10:59:48.445Z,101296.84
2022-10-28T11:02:31.832Z,101290.09
2022-10-28T11:05:04.642Z,101282.16
2022-10-28T11:07:32.635Z,101282.13
2022-10-28T11:10:00.629Z,101281.66
2022-10-28T11:12:35.590Z,101285.63
2022-10-28T11:15:21.346Z,101284.87
2022-10-28T11:18:00.611Z,101292.19
2022-10-28T11:20:34.729Z,101282.22
2022-10-28T11:23:13.015Z,101288.16
2022-10-28T11:25:43.652Z,101278.47
2022-10-28T11:28:29.728Z,101279.53
2022-10-28T11:34:05.446Z,101280.56
2022-10-28T11:36:39.066Z,101286.06
2022-10-28T11:39:34.006Z,101285.00
2022-10-28T11:42:07.075Z,101275.19
2022-10-28T11:47:37.796Z,101270.78
2022-10-28T11:50:24.628Z,101269.19
2022-10-28T11:53:16.917Z,101266.25
2022-10-28T11:56:04.052Z,101263.87
2022-10-28T11:58:55.992Z,101254.88
2022-10-28T12:01:49.310Z,101255.78
2022-10-28T12:04:38.915Z,101254.00
2022-10-28T12:07:28.604Z,101243.50
2022-10-28T12:10:12.460Z,101244.31
2022-10-28T12:12:59.907Z,101246.38
2022-10-28T12:15:43.966Z,101239.66
2022-10-28T12:18:14.180Z,101225.34
2022-10-28T12:21:00.862Z,101228.28
2022-10-28T12:23:29.663Z,101242.44
2022-10-28T12:25:58.958Z,101239.47
2022-10-28T12:28:30.620Z,101230.78
2022-10-28T12:30:58.583Z,101231.38
2022-10-28T12:33:33.341Z,101232.50
2022-10-28T12:36:19.258Z,101228.81
2022-10-28T12:39:01.256Z,101213.94
2022-10-28T12:42:03.280Z,101228.91
2022-10-28T12:44:32.745Z,101213.09
2022-10-28T12:47:20.071Z,101214.06
2022-10-28T12:50:07.859Z,101217.69
2022-10-28T12:52:49.689Z,101210.56
2022-10-28T12:55:32.106Z,101208.00
2022-10-28T12:58:04.994Z,101211.88
2022-10-28T13:00:37.402Z,101204.56
2022-10-28T13:03:09.980Z,101206.63
2022-10-28T13:05:42.003Z,101193.56
2022-10-28T13:08:43.551Z,101199.13
2022-10-28T13:11:29.253Z,101195.87
2022-10-28T13:13:56.847Z,101203.03
2022-10-28T13:16:44.261Z,101190.91
2022-10-28T13:19:46.411Z,101192.78
2022-10-28T13:22:28.490Z,101200.09
2022-10-28T13:25:17.594Z,101196.75
2022-10-28T13:27:45.424Z,101206.44
2022-10-28T13:30:20.063Z,101202.97
2022-10-28T13:33:04.486Z,101205.16
2022-10-28T13:35:32.307Z,101205.25
2022-10-28T13:38:00.420Z,101203.53
2022-10-28T13:40:30.394Z,101213.25
2022-10-28T13:42:59.044Z,101198.31
2022-10-28T13:45:48.279Z,101202.72
2022-10-28T13:48:43.433Z,101196.66
2022-10-28T13:51:10.736Z,101192.16
2022-10-28T13:53:47.273Z,101193.56
2022-10-28T13:56:22.864Z,101199.94
2022-10-28T13:58:56.005Z,101185.53
2022-10-28T14:01:42.067Z,101191.56
2022-10-28T14:04:22.404Z,101199.97
2022-10-28T14:06:50.389Z,101199.41
2022-10-28T14:09:30.025Z,101203.41
2022-10-28T14:12:17.630Z,101205.59
2022-10-28T14:14:59.059Z,101209.03
2022-10-28T14:17:38.363Z,101216.25
2022-10-28T14:20:20.912Z,101209.38
2022-10-28T14:22:48.410Z,101210.22
2022-10-28T14:25:51.659Z,101206.22
2022-10-28T14:28:27.498Z,101208.09
2022-10-28T14:31:11.414Z,101199.66
2022-10-28T14:33:50.755Z,101196.37
2022-10-28T14:36:18.462Z,101194.59
2022-10-28T14:38:51.546Z,101193.81
2022-10-28T14:41:34.468Z,101199.41
2022-10-28T14:44:21.885Z,101198.03
2022-10-28T14:46:52.150Z,101196.59
2022-10-28T14:49:30.659Z,101197.59
2022-10-28T14:52:08.788Z,101189.25
2022-10-28T14:54:40.887Z,101195.97
2022-10-28T14:57:08.997Z,101196.25
2022-10-28T14:59:38.341Z,101186.25
2022-10-28T15:02:17.439Z,101186.84
2022-10-28T15:04:47.095Z,101187.38
2022-10-28T15:07:16.689Z,101181.19
2022-10-28T15:09:45.319Z,101188.91
2022-10-28T15:12:17.741Z,101186.97
2022-10-28T15:14:53.087Z,101188.50
2022-10-28T15:17:23.545Z,101177.34
2022-10-28T15:19:58.954Z,101172.53
2022-10-28T15:22:31.296Z,101170.38
2022-10-28T15:25:08.185Z,101178.31
2022-10-28T15:27:37.468Z,101177.44
2022-10-28T15:30:19.045Z,101179.97
2022-10-28T15:32:46.712Z,101177.50
2022-10-28T15:35:38.476Z,101183.56
2022-10-28T15:38:25.711Z,101170.75
2022-10-28T15:40:53.135Z,101162.44
2022-10-28T15:43:28.473Z,101164.91
2022-10-28T15:46:09.862Z,101165.34
2022-10-28T15:48:37.840Z,101169.75
2022-10-28T15:51:18.086Z,101159.19
2022-10-28T15:53:53.845Z,101160.03
2022-10-28T15:56:25.717Z,101167.22
2022-10-28T15:58:59.526Z,101165.25
2022-10-28T16:01:38.195Z,101163.69
2022-10-28T16:04:27.637Z,101167.97
2022-10-28T16:06:57.544Z,101168.53
2022-10-28T16:09:28.190Z,101163.66
2022-10-28T16:11:57.614Z,101167.22
2022-10-28T16:15:00.754Z,101159.53
2022-10-28T16:17:33.784Z,101160.91
2022-10-28T16:20:05.104Z,101152.91
2022-10-28T16:22:35.166Z,101159.00
2022-10-28T16:25:08.858Z,101162.75
2022-10-28T16:27:36.218Z,101159.47
2022-10-28T16:30:04.944Z,101162.31
2022-10-28T16:32:40.143Z,101157.12
2022-10-28T16:35:15.286Z,101172.06
2022-10-28T16:37:44.777Z,101167.38
2022-10-28T16:40:37.663Z,101167.47
2022-10-28T16:43:01.561Z,101164.25
2022-10-28T16:45:29.222Z,101169.84
2022-10-28T16:47:56.745Z,101170.62
2022-10-28T16:50:24.347Z,101160.78
2022-10-28T16:52:54.456Z,101173.09
2022-10-28T16:55:21.905Z,101169.37
2022-10-28T16:57:49.263Z,101174.19
2022-10-28T17:00:17.437Z,101169.19
2022-10-28T17:02:45.301Z,101172.63
2022-10-28T17:05:19.774Z,101169.78
2022-10-28T17:07:47.384Z,101172.75
2022-10-28T17:10:15.432Z,101170.88
2022-10-28T17:12:42.966Z,101183.59
2022-10-28T17:15:11.214Z,101171.94
2022-10-28T17:17:58.314Z,101177.16
2022-10-28T17:20:26.115Z,101169.37
2022-10-28T17:22:53.783Z,101170.84
2022-10-28T17:25:21.695Z,101176.19
2022-10-28T17:27:49.394Z,101166.84
2022-10-28T17:30:17.924Z,101174.41
2022-10-28T17:32:49.347Z,101177.72
2022-10-28T17:35:18.485Z,101181.75
2022-10-28T17:37:45.980Z,101168.84
2022-10-28T17:40:13.386Z,101169.94
2022-10-28T17:42:41.067Z,101174.78
2022-10-28T17:45:09.973Z,101184.62
2022-10-28T17:47:37.403Z,101178.91
2022-10-28T17:50:05.707Z,101177.28
2022-10-28T17:52:37.290Z,101175.84
2022-10-28T17:55:07.148Z,101176.81
2022-10-28T17:57:34.703Z,101180.91
2022-10-28T18:00:02.248Z,101171.16
2022-10-28T18:02:40.617Z,101179.75
2022-10-28T18:05:08.964Z,101178.75
2022-10-28T18:07:36.832Z,101169.69
2022-10-28T18:10:04.860Z,101178.66
2022-10-28T18:12:33.080Z,101174.44
2022-10-28T18:15:01.067Z,101171.38
2022-10-28T18:17:28.786Z,101166.44
2022-10-28T18:19:58.647Z,101171.59
2022-10-28T18:24:59.420Z,101161.66
2022-10-28T18:27:29.427Z,101166.41
2022-10-28T18:29:57.276Z,101159.91
2022-10-28T18:32:25.154Z,101159.34
2022-10-28T18:34:52.930Z,101167.34
2022-10-28T18:37:21.419Z,101170.72
2022-10-28T18:39:49.840Z,101173.03
2022-10-28T18:42:21.936Z,101173.03
2022-10-28T18:44:49.907Z,101162.78
2022-10-28T18:47:17.839Z,101167.78
2022-10-28T18:49:45.915Z,101157.81
2022-10-28T18:52:13.967Z,101149.63
2022-10-28T18:54:41.798Z,101146.66
2022-10-28T18:57:09.720Z,101143.50
2022-10-28T18:59:52.359Z,101143.53
2022-10-28T19:02:25.382Z,101147.22
2022-10-28T19:04:53.307Z,101148.72
2022-10-28T19:07:20.834Z,101149.19
2022-10-28T19:09:48.208Z,101147.81
2022-10-28T19:12:16.571Z,101148.03
2022-10-28T19:14:44.336Z,101152.47
2022-10-28T19:17:12.869Z,101148.72
2022-10-28T19:19:40.718Z,101147.06
2022-10-28T19:22:13.408Z,101149.37
2022-10-28T19:24:41.518Z,101150.56
2022-10-28T19:27:09.291Z,101155.13
2022-10-28T19:32:09.461Z,101155.59
2022-10-28T19:34:37.254Z,101153.25
2022-10-28T19:37:04.886Z,101145.03
2022-10-28T19:39:32.668Z,101147.88
2022-10-28T19:42:00.065Z,101151.75
2022-10-28T19:44:27.800Z,101153.03
2022-10-28T19:46:55.566Z,101140.53
2022-10-28T19:49:27.802Z,101154.81
2022-10-28T19:51:57.453Z,101153.06
2022-10-28T19:54:24.817Z,101160.91
2022-10-28T19:56:52.330Z,101161.56
2022-10-28T19:59:21.146Z,101165.13
2022-10-28T20:01:49.977Z,101156.25
2022-10-28T20:04:18.010Z,101153.03
2022-10-28T20:06:45.412Z,101151.97
2022-10-28T20:09:13.208Z,101160.88
2022-10-28T20:11:41.269Z,101155.13
2022-10-28T20:14:12.101Z,101159.88
2022-10-28T20:16:42.551Z,101164.66
2022-10-28T20:19:11.050Z,101172.44
2022-10-28T20:21:39.406Z,101170.94
2022-10-28T20:24:07.349Z,101165.25
2022-10-28T20:26:36.644Z,101174.06
2022-10-28T20:29:07.065Z,101175.91
2022-10-28T20:31:34.847Z,101171.66
2022-10-28T20:34:06.032Z,101173.00
2022-10-28T20:36:38.712Z,101168.81
2022-10-28T20:39:17.339Z,101170.47
2022-10-28T20:41:46.083Z,101166.91
2022-10-28T20:44:13.818Z,101179.94
2022-10-28T20:46:41.601Z,101178.63
2022-10-28T20:49:09.907Z,101176.94
2022-10-28T20:51:37.565Z,101168.34
2022-10-28T20:54:05.281Z,101177.16
2022-10-28T20:56:36.226Z,101168.94
2022-10-28T20:59:04.292Z,101159.19
2022-10-28T21:01:33.678Z,101160.81
2022-10-28T21:04:04.357Z,101162.81
2022-10-28T21:06:32.449Z,101163.34
2022-10-28T21:08:59.795Z,101152.75
2022-10-28T21:11:28.021Z,101156.50
2022-10-28T21:13:58.118Z,101161.53
2022-10-28T21:16:26.862Z,101158.03
2022-10-28T21:18:54.686Z,101161.59
2022-10-28T21:21:23.957Z,101169.81
2022-10-28T21:23:51.310Z,101160.62
2022-10-28T21:26:18.854Z,101161.22
2022-10-28T21:28:53.234Z,101157.66
2022-10-28T21:31:21.334Z,101158.91
2022-10-28T21:36:19.645Z,101163.09
2022-10-28T21:38:47.435Z,101162.34
2022-10-28T21:41:19.777Z,101152.84
2022-10-28T21:43:49.050Z,101153.97
2022-10-28T21:46:17.704Z,101156.63
2022-10-28T21:48:45.380Z,101151.63
2022-10-28T21:51:15.132Z,101151.28
2022-10-28T21:53:44.421Z,101148.84
2022-10-28T21:56:17.437Z,101146.53
2022-10-28T21:58:47.900Z,101136.84
2022-10-28T22:01:20.266Z,101140.00
2022-10-28T22:03:48.363Z,101137.41
2022-10-28T22:06:15.722Z,101136.81
2022-10-28T22:08:43.106Z,101138.25
2022-10-28T22:11:19.332Z,101135.50
2022-10-28T22:13:48.688Z,101130.88
2022-10-28T22:16:17.785Z,101131.03
2022-10-28T22:18:45.546Z,101136.69
2022-10-28T22:21:15.588Z,101138.41
2022-10-28T22:23:43.560Z,101137.44
2022-10-28T22:26:13.632Z,101130.44
2022-10-28T22:28:41.390Z,101119.91
2022-10-28T22:31:11.322Z,101128.28
2022-10-28T22:33:38.840Z,101130.84
2022-10-28T22:36:08.481Z,101123.12
2022-10-28T22:38:36.145Z,101126.47
2022-10-28T22:41:07.564Z,101122.06
2022-10-28T22:43:34.952Z,101119.81
2022-10-28T22:46:03.400Z,101131.41
2022-10-28T22:48:31.346Z,101122.75
2022-10-28T22:50:59.067Z,101123.62
2022-10-28T22:53:26.978Z,101127.03
2022-10-28T22:55:54.922Z,101121.03
2022-10-28T22:58:23.385Z,101121.59
2022-10-28T23:00:51.124Z,101115.13
2022-10-28T23:03:19.016Z,101114.66
2022-10-28T23:05:46.352Z,101110.56
2022-10-28T23:08:17.196Z,101110.09
2022-10-28T23:10:44.565Z,101107.69
2022-10-28T23:13:12.782Z,101109.22
2022-10-28T23:15:40.435Z,101102.44
2022-10-28T23:18:07.833Z,101099.13
2022-10-28T23:20:36.378Z,101111.87
2022-10-28T23:23:04.213Z,101109.50
2022-10-28T23:25:31.570Z,101106.81
2022-10-28T23:27:59.191Z,101113.97
2022-10-28T23:30:26.915Z,101103.72
2022-10-28T23:32:57.214Z,101102.56
2022-10-28T23:35:25.153Z,101094.06
2022-10-28T23:37:53.003Z,101097.84
2022-10-28T23:40:20.616Z,101102.53
2022-10-28T23:42:48.026Z,101096.75
2022-10-28T23:45:15.732Z,101108.91
2022-10-28T23:47:43.136Z,101100.66
2022-10-28T23:50:11.074Z,101107.91
2022-10-28T23:52:38.698Z,101109.62
2022-10-28T23:55:06.388Z,101107.03
2022-10-28T23:57:33.951Z,101107.56
